Latest Weather Observations for Kingaroy

IDQ60801

Issued at 6:32 am EST Sunday 2 October 2016 (issued every 30 minutes, with the page automatically refreshed every 10 minutes)

About weather observations | Map of weather stations | Latest weather observations for QLD | Other Formats
Station Details ID: 040922 Name: KINGAROY AIRPORT Lat: -26.57 Lon: 151.84 Height: 433.67 m
Data from the previous 72 hours. | See also: Recent months at Kingaroy
Date/Time
EST
Temp
°C
App
Temp
°C
Dew
Point
°C
Rel
Hum
%
Delta-T
°C
Wind Press
QNH
hPa
Press
MSL
hPa
Rain since
9am
mm
Dir  Spd
km/h
Gust
km/h
Spd
kts
Gust
kts
02/06:30am 5.4 4.0 3.6 88 0.8 CALM 0 0 0 0 1017.8 1016.3 -
02/06:00am 3.4 1.8 2.4 93 0.4 CALM 0 0 0 0 1017.3 1015.7 -
02/05:30am 3.1 1.4 1.9 92 0.5 CALM 0 0 0 0 1016.8 1015.2 -
02/05:00am 3.6 2.0 2.4 92 0.5 CALM 0 0 0 0 1016.2 1014.7 -
02/04:30am 3.2 1.5 1.7 90 0.6 CALM 0 0 0 0 1015.9 1014.4 -
02/04:00am 3.9 1.2 2.6 91 0.5 SSE 6 7 3 4 1015.7 1014.2 -
02/03:30am 3.5 0.1 1.9 89 0.6 S 9 11 5 6 1015.5 1013.9 -
02/03:00am 4.3 2.7 2.5 88 0.7 CALM 0 0 0 0 1015.4 1013.8 0.0
02/02:30am 4.9 3.5 3.4 90 0.6 CALM 0 0 0 0 1015.3 1013.7 -
02/02:00am 4.5 3.0 2.8 89 0.7 CALM 0 0 0 0 1015.4 1013.8 -
02/01:30am 5.1 3.6 3.1 87 0.8 CALM 0 0 0 0 1015.4 1013.8 -
02/01:00am 5.6 4.2 3.3 85 1.0 CALM 0 0 0 0 1015.5 1013.9 -
02/12:30am 5.9 4.4 3.2 83 1.2 CALM 0 0 0 0 1015.6 1014.0 -
02/12:00am 6.1 3.3 3.3 82 1.2 S 7 9 4 5 1015.9 1014.4 -
 
Date/Time
EST
Temp
°C
App
Temp
°C
Dew
Point
°C
Rel
Hum
%
Delta-T
°C
Wind Press
QNH
hPa
Press
MSL
hPa
Rain since
9am
mm
Dir  Spd
km/h
Gust
km/h
Spd
kts
Gust
kts
01/11:30pm 6.9 5.6 4.0 82 1.3 CALM 0 0 0 0 1016.0 1014.5 -
01/11:00pm 7.8 5.3 4.0 77 1.7 E 6 7 3 4 1015.9 1014.4 -
01/10:30pm 7.6 6.2 3.6 76 1.8 CALM 0 0 0 0 1016.0 1014.5 -
01/10:00pm 8.8 7.4 3.6 70 2.3 CALM 0 0 0 0 1016.1 1014.6 -
01/09:30pm 8.8 6.8 4.6 75 1.9 ESE 4 7 2 4 1016.2 1014.7 -
01/09:00pm 10.2 9.0 4.8 69 2.5 CALM 0 0 0 0 1016.4 1014.8 0.0
01/08:30pm 10.5 9.3 4.4 66 2.8 CALM 0 0 0 0 1016.2 1014.7 -
01/08:00pm 12.0 10.0 4.5 60 3.5 SSE 4 6 2 3 1016.0 1014.5 -
01/07:30pm 13.1 10.7 4.5 56 4.0 SSW 6 7 3 4 1015.5 1013.9 -
01/07:00pm 14.7 12.0 3.5 47 5.2 SSE 7 9 4 5 1015.2 1013.6 -
01/06:30pm 16.5 13.6 2.5 39 6.5 S 7 9 4 5 1014.7 1013.1 -
01/06:00pm 18.7 15.3 1.7 32 7.9 SW 9 13 5 7 1014.4 1012.8 -
01/05:30pm 20.7 16.6 2.0 29 8.8 WSW 13 19 7 10 1014.2 1012.6 -
01/05:00pm 22.1 17.6 2.2 27 9.5 WSW 15 24 8 13 1014.1 1012.5 -
01/04:30pm 22.7 17.5 2.2 26 9.9 W 19 28 10 15 1013.6 1012.0 -
01/04:00pm 23.1 18.1 1.5 24 10.3 W 17 28 9 15 1013.5 1011.9 -
01/03:30pm 23.3 18.0 1.6 24 10.4 W 19 28 10 15 1013.5 1011.9 -
01/03:00pm 22.9 17.5 1.3 24 10.2 W 19 30 10 16 1013.4 1011.8 -
01/02:30pm 23.0 16.4 1.9 25 10.1 NW 26 35 14 19 1013.4 1011.8 -
01/02:00pm 23.1 - 2.0 25 10.2 - - - - - 1013.7 1012.2 -
01/01:30pm 22.4 17.1 3.0 28 9.5 WSW 20 32 11 17 1014.0 1012.4 0.0
01/01:00pm 22.1 16.4 2.8 28 9.4 WNW 22 32 12 17 1014.2 1012.6 0.0
01/12:30pm 22.0 17.0 4.6 32 8.7 WSW 20 30 11 16 1014.4 1012.8 0.0
01/12:00pm 21.1 15.4 2.9 30 8.8 W 22 35 12 19 1014.6 1013.0 0.0
01/11:30am 21.0 15.4 3.2 31 8.6 W 22 35 12 19 1015.0 1013.4 0.0
01/11:00am 20.5 14.9 3.7 33 8.2 W 22 37 12 20 1015.2 1013.6 0.0
01/10:30am 19.9 13.5 3.2 33 8.0 W 26 35 14 19 1015.5 1013.9 0.0
01/10:00am 19.6 13.6 3.3 34 7.8 WSW 24 37 13 20 1015.7 1014.2 0.0
01/09:30am 19.1 13.3 2.5 33 7.8 WSW 22 33 12 18 1015.8 1014.8 0.0
01/09:00am 18.8 13.1 3.0 35 7.5 W 22 35 12 19 1015.6 1014.6 0.2
01/08:30am 17.5 13.1 4.5 42 6.3 WSW 17 24 9 13 1015.4 1014.4 0.2
01/08:00am 14.3 12.4 7.6 64 3.4 WNW 7 11 4 6 1015.3 1014.3 0.2
01/07:30am 10.7 9.1 6.5 75 2.0 WNW 4 9 2 5 1015.3 1014.3 0.2
01/07:00am 7.9 7.0 5.9 87 0.9 CALM 0 6 0 3 1015.0 1014.0 0.2
01/06:30am 5.1 3.8 3.9 92 0.5 CALM 0 0 0 0 1014.5 1013.5 0.2
01/06:00am 3.7 2.2 3.0 95 0.3 CALM 0 0 0 0 1014.0 1012.9 0.2
01/05:30am 3.1 1.4 2.1 93 0.4 CALM 0 0 0 0 1013.7 1012.7 0.2
01/05:00am 3.3 0.3 2.3 93 0.4 S 7 7 4 4 1013.0 1012.0 0.2
01/04:30am 3.3 0.0 2.3 93 0.4 S 9 11 5 6 1012.5 1011.5 0.2
01/04:00am 3.6 2.0 2.6 93 0.4 CALM 0 0 0 0 1012.3 1011.2 0.2
01/03:30am 3.7 2.1 2.4 91 0.5 CALM 0 0 0 0 1012.0 1010.9 0.2
01/03:00am 4.2 2.3 2.9 91 0.5 S 2 6 1 3 1012.2 1011.1 0.2
01/02:30am 4.2 2.7 2.9 91 0.5 CALM 0 0 0 0 1012.3 1011.2 0.2
01/02:00am 4.6 3.2 3.3 91 0.6 CALM 0 0 0 0 1012.2 1011.1 0.2
01/01:30am 5.0 3.6 3.3 89 0.7 CALM 0 0 0 0 1012.2 1011.1 0.2
01/01:00am 5.5 4.1 3.7 88 0.8 CALM 0 0 0 0 1012.0 1010.9 0.2
01/12:30am 6.0 4.7 4.0 87 0.9 CALM 0 0 0 0 1011.9 1010.8 0.2
01/12:00am 6.1 3.4 3.8 85 1.0 S 7 9 4 5 1012.1 1011.0 0.2
 
Date/Time
EST
Temp
°C
App
Temp
°C
Dew
Point
°C
Rel
Hum
%
Delta-T
°C
Wind Press
QNH
hPa
Press
MSL
hPa
Rain since
9am
mm
Dir  Spd
km/h
Gust
km/h
Spd
kts
Gust
kts
30/11:30pm 6.6 4.2 4.1 84 1.1 SSE 6 7 3 4 1012.5 1011.5 0.2
30/11:00pm 7.1 5.0 4.1 81 1.3 ESE 4 9 2 5 1012.3 1011.2 0.2
30/10:30pm 7.5 5.5 4.3 80 1.4 E 4 7 2 4 1012.3 1011.2 0.2
30/10:00pm 9.1 7.8 3.9 70 2.3 CALM 0 0 0 0 1012.3 1011.2 0.2
30/09:30pm 8.3 6.3 4.5 77 1.7 ENE 4 7 2 4 1012.3 1011.2 0.2
30/09:00pm 9.2 7.3 5.0 75 1.9 ENE 4 7 2 4 1012.2 1011.1 0.2
30/08:30pm 10.7 9.4 4.0 63 3.1 CALM 0 0 0 0 1012.0 1010.9 0.2
30/08:00pm 13.2 10.3 2.7 49 4.8 W 7 9 4 5 1011.5 1010.4 0.2
30/07:30pm 14.3 10.7 2.9 46 5.2 WSW 11 15 6 8 1010.8 1009.8 0.2
30/07:00pm 14.8 11.2 3.0 45 5.4 WSW 11 15 6 8 1010.5 1009.5 0.2
30/06:30pm 15.8 11.8 2.6 41 6.1 SW 13 15 7 8 1010.1 1009.0 0.2
30/06:00pm 17.1 12.2 1.9 36 7.0 WSW 17 24 9 13 1009.6 1008.5 0.2
30/05:30pm 19.0 14.0 1.5 31 8.1 WSW 17 28 9 15 1008.8 1007.8 0.2
30/05:00pm 20.4 15.0 1.3 28 8.9 WNW 19 28 10 15 1008.3 1007.3 0.2
30/04:30pm 20.8 14.7 0.6 26 9.3 W 22 32 12 17 1008.1 1007.0 0.2
30/04:00pm 21.3 14.7 -0.1 24 9.8 W 24 43 13 23 1007.7 1006.6 0.2
30/03:30pm 21.5 14.5 -0.5 23 10.0 WNW 26 39 14 21 1007.4 1006.3 0.2
30/03:00pm 21.5 14.0 1.2 26 9.5 WNW 30 39 16 21 1007.3 1006.2 0.2
30/02:30pm 22.2 14.1 3.3 29 9.3 NW 35 48 19 26 1007.2 1006.1 0.2
30/02:00pm 22.4 14.6 1.4 25 10.0 WNW 32 46 17 25 1007.2 1006.1 0.2
30/01:30pm 21.6 13.8 2.8 29 9.1 WNW 33 48 18 26 1007.5 1006.4 0.2
30/01:09pm 21.9 14.7 3.1 29 9.2 NW 30 50 16 27 1007.5 1006.4 0.2
30/01:00pm 21.5 13.9 2.7 29 9.1 NW 32 43 17 23 1007.7 1006.6 0.2
30/12:30pm 21.3 15.1 4.4 33 8.4 WNW 26 43 14 23 1008.2 1007.1 0.2
30/12:00pm 19.8 12.1 2.2 31 8.3 NW 32 46 17 25 1008.4 1007.4 0.2
30/11:30am 19.9 13.0 2.7 32 8.2 WNW 28 43 15 23 1008.6 1007.6 0.2
30/11:00am 19.2 12.8 3.0 34 7.7 WNW 26 41 14 22 1009.1 1008.0 0.2
30/10:30am 18.4 11.8 2.3 34 7.5 W 26 41 14 22 1009.4 1008.3 0.2
30/10:00am 18.0 12.2 2.3 35 7.3 WNW 22 35 12 19 1009.5 1008.4 0.0
30/09:30am 17.7 11.8 1.7 34 7.3 W 22 33 12 18 1009.7 1008.6 0.0
30/09:00am 17.0 10.6 1.0 34 7.2 WSW 24 32 13 17 1009.8 1008.7 8.0
30/08:30am 16.5 11.1 2.2 38 6.6 WSW 20 32 11 17 1010.0 1008.9 8.0
30/08:00am 15.4 9.7 0.8 37 6.5 WSW 20 30 11 16 1010.1 1009.0 8.0
30/07:30am 14.8 11.4 5.9 55 4.4 WSW 13 17 7 9 1010.0 1008.9 8.0
30/07:00am 14.0 11.1 6.4 60 3.7 W 11 17 6 9 1009.8 1008.7 8.0
30/06:30am 13.7 11.1 6.3 61 3.6 WNW 9 11 5 6 1009.5 1008.4 8.0
30/06:00am 13.0 10.1 6.4 64 3.2 WSW 11 17 6 9 1008.8 1007.8 8.0
30/05:30am 13.3 10.8 8.0 70 2.7 W 11 17 6 9 1008.6 1007.6 8.0
30/05:00am 14.1 10.8 8.1 67 3.1 W 15 20 8 11 1008.2 1007.1 8.0
30/04:51am 14.6 10.6 8.3 66 3.2 WSW 19 33 10 18 1008.0 1006.9 8.0
30/04:36am 15.6 14.8 14.1 91 0.9 WNW 11 15 6 8 1007.7 1006.6 8.0
30/04:30am 15.4 14.6 13.9 91 0.9 WNW 11 15 6 8 1007.6 1006.5 8.0
30/04:00am 15.9 15.1 13.9 88 1.2 WNW 11 17 6 9 1007.5 1006.4 8.0
30/03:30am 16.3 14.5 14.5 89 1.1 WNW 17 26 9 14 1007.5 1006.4 8.0
30/03:05am 16.7 15.9 15.1 90 0.9 WNW 13 20 7 11 1007.4 1006.3 8.0
30/03:00am 16.6 15.8 15.0 90 0.9 WNW 13 20 7 11 1007.2 1006.1 8.0
30/02:30am 17.0 16.1 15.9 93 0.7 WNW 15 22 8 12 1007.3 1006.2 8.0
30/02:09am 17.0 16.6 16.2 95 0.5 NNW 13 17 7 9 1007.5 1006.4 8.0
30/02:00am 17.2 17.3 16.6 96 0.4 WNW 11 15 6 8 1007.6 1006.5 8.0
30/01:57am 17.2 17.3 16.6 96 0.4 WNW 11 15 6 8 1007.5 1006.4 8.0
30/01:55am 17.2 17.3 16.4 95 0.5 WNW 11 15 6 8 1007.5 1006.4 8.0
30/01:30am 17.6 16.2 17.1 97 0.3 NNW 20 28 11 15 1007.6 1006.5 5.4
30/01:28am 17.5 16.1 16.9 96 0.4 NNW 20 28 11 15 1007.4 1006.3 5.0
30/01:00am 17.7 14.7 16.7 94 0.6 N 28 35 15 19 1007.2 1006.1 3.2
30/12:30am 17.5 14.8 16.7 95 0.5 N 26 35 14 19 1007.8 1006.7 3.2
30/12:00am 17.2 15.6 16.6 96 0.4 N 20 30 11 16 1008.4 1007.4 3.2
 
Date/Time
EST
Temp
°C
App
Temp
°C
Dew
Point
°C
Rel
Hum
%
Delta-T
°C
Wind Press
QNH
hPa
Press
MSL
hPa
Rain since
9am
mm
Dir  Spd
km/h
Gust
km/h
Spd
kts
Gust
kts
29/11:30pm 16.8 16.0 16.2 96 0.4 N 15 24 8 13 1008.8 1007.8 3.2
29/11:00pm 16.3 14.9 15.5 95 0.5 NNW 17 20 9 11 1009.1 1008.0 3.2
29/10:30pm 16.0 15.2 15.0 94 0.6 NNW 13 17 7 9 1008.9 1007.9 3.2
29/10:00pm 16.1 15.3 15.0 93 0.6 N 13 22 7 12 1008.9 1007.9 3.2
29/09:30pm 15.8 14.8 14.7 93 0.6 N 13 20 7 11 1009.1 1008.0 3.2
29/09:00pm 15.5 14.7 14.0 91 0.9 N 11 17 6 9 1009.3 1008.2 3.2
29/08:30pm 15.1 14.5 13.6 91 0.9 N 9 13 5 7 1009.3 1008.2 3.2
29/08:00pm 14.9 13.9 13.4 91 0.9 N 11 13 6 7 1009.4 1008.3 3.2
29/07:30pm 14.8 14.1 13.3 91 0.9 N 9 15 5 8 1009.3 1008.2 3.2
29/07:11pm 14.9 13.9 13.4 91 0.9 N 11 19 6 10 1009.2 1008.1 3.2
29/07:00pm 14.9 13.6 13.6 92 0.7 N 13 20 7 11 1009.1 1008.0 3.2
29/06:30pm 14.7 13.0 13.6 93 0.6 N 15 20 8 11 1009.2 1008.1 3.2
29/06:24pm 14.7 13.0 13.6 93 0.6 N 15 19 8 10 1009.1 1008.0 3.0
29/06:10pm 14.8 12.2 13.3 91 0.9 N 19 28 10 15 1008.8 1007.8 3.0
29/06:00pm 15.1 13.6 13.1 88 1.1 N 13 20 7 11 1008.8 1007.8 2.2
29/05:30pm 15.8 13.7 12.4 80 1.9 N 15 22 8 12 1008.6 1007.6 2.2
29/05:00pm 15.6 13.2 12.7 83 1.6 N 17 24 9 13 1008.0 1006.9 2.2
29/04:30pm 15.9 13.1 12.6 81 1.9 N 19 26 10 14 1008.3 1007.3 2.2
29/04:00pm 15.7 12.0 12.6 82 1.7 N 24 37 13 20 1008.1 1007.0 2.2
29/03:30pm 15.7 12.7 12.6 82 1.7 N 20 28 11 15 1008.1 1007.0 2.2
29/03:00pm 15.6 13.2 12.7 83 1.6 N 17 24 9 13 1008.2 1007.1 2.2
29/02:30pm 15.3 13.7 12.8 85 1.4 NNE 13 24 7 13 1008.3 1007.3 2.2
29/02:00pm 14.5 12.8 12.5 88 1.1 N 13 19 7 10 1008.7 1007.7 2.2
29/01:30pm 14.2 12.1 12.4 89 1.0 N 15 20 8 11 1009.5 1008.4 2.0
29/01:00pm 14.1 11.6 12.3 89 1.0 NNW 17 26 9 14 1010.3 1009.2 1.8
29/12:30pm 14.6 11.3 11.7 83 1.6 N 20 28 11 15 1010.6 1009.6 1.0
29/12:00pm 15.0 11.2 11.0 77 2.2 NNW 22 37 12 20 1011.0 1010.0 0.6
29/11:30am 15.4 11.8 10.6 73 2.6 NW 20 32 11 17 1011.2 1010.2 0.2
29/11:00am 16.6 11.5 9.1 61 4.0 NNW 26 43 14 23 1011.0 1010.0 0.0
29/10:30am 20.0 14.8 7.1 43 6.7 NNW 24 33 13 18 1011.3 1010.3 0.0
29/10:00am 19.6 15.0 6.4 42 6.8 N 20 28 11 15 1010.9 1009.9 0.0
29/09:30am 19.0 15.2 7.4 47 6.0 N 17 20 9 11 1010.6 1009.6 0.0
29/09:00am 18.3 14.6 8.0 51 5.4 NNW 17 20 9 11 1011.5 1010.4 0.0
29/08:30am 18.7 15.8 8.1 50 5.6 NW 13 19 7 10 1011.7 1010.6 0.0
29/08:00am 18.0 15.0 7.7 51 5.4 WNW 13 19 7 10 1011.0 1010.0 0.0
29/07:30am 17.6 14.1 7.4 51 5.2 NNW 15 22 8 12 1010.5 1009.5 0.0
29/07:00am 16.9 12.9 6.7 51 5.2 NNE 17 28 9 15 1009.3 1008.2 0.0

Other Formats:

Comma delimited format used in spreadsheet applications
http://www.bom.gov.au/fwo/IDQ60801/IDQ60801.94549.axf

JavaScript Object Notation format (JSON) in row-major order
http://www.bom.gov.au/fwo/IDQ60801/IDQ60801.94549.json